Dubrovnik, Croatia

2:03 AM CEST on October 23, 2014 (GMT +0200)
Cilipi | Change Station
CLOSE
Current Station
Airport
Location: Dubrovnik,
Elevation: 541 ft
Nearby Weather Stations

Elev 541 ft 42.56 °N, 18.27 °E | Updated 3 minutes ago

Clear
Clear
52 °F
Feels Like 52 °F
N
30
Wind Variable Wind from NNE
Gusts 44 mph

Today
High -- | Low -- °F
--% Chance of Precip.
Yesterday
High -- | Low -- °F
Precip. -- in
7:09 AM 5:52 PM
Waning Crescent, 1% visible
Pressure 29.59 in
Visibility -9999.0 miles
Clouds
Dew Point 34 °F
Humidity 50%
Rainfall 0.00 in
Snow Depth Not available.
UV Not available.
Pollen Not available.
Air Quality Not available.
Flu Activity Not available.
METAR LDDU 230000Z 03026G38KT 340V070 CAVOK 11/01 Q1002

More Conditions Fewer Conditions

Pressure 29.59 in
Visibility -9999.0 miles
Clouds
Dew Point 34 °F
Humidity 50%
Rainfall 0.00 in
Snow Depth Not available.
UV Not available.
Pollen Not available.
Air Quality Not available.
Flu Activity Not available.
METAR LDDU 230000Z 03026G38KT 340V070 CAVOK 11/01 Q1002

More Conditions Fewer Conditions

10-Day Weather Forecast

Almanac

Astronomy

Oct. 23, 2014 Rise Set
Actual Time 7:09 AM CEST 5:52 PM CEST
Civil Twilight 6:40 AM CEST 6:21 PM CEST
Nautical Twilight 6:07 AM CEST 6:54 PM CEST
Astronomical Twilight 5:34 AM CEST 7:26 PM CEST
Moon 6:30 AM CEST 5:43 PM CEST
Length of Visible Light 11h 41m
Length of Day
10h 43m
Tomorrow will be 2m 42s shorter.
Waning Crescent, 1% of the Moon is Illuminated
Oct 22
Waning Crescent
Oct 23
New
Oct 30
First Quarter
Nov 6
Full
Nov 14
Last Quarter

Yesterday's Extremes

Country Highs Country Lows

Community

WunderPhotos

Upload Photos

1,764,082 photos uploaded!

WunderBlogs® & News

Nearby

Snow Depth

Not available.

Earthquake Activity

City Distance Mag. Time & Date
No recent earthquake activity has been reported nearby.
Minimum magnitude displayed is 2.5.

Coastal Water Temperatures

Place Temperature
No Stations Reporting

Nearby Weather Stations